Copper Mountain — WDI8648 — position and weather

sailwx.info

Track history (hours):
 
Tides and Currents Weather Stations Pressure Air Temp Water Temp Dewpoint Dewpoint Depression Visibility Wind Speed Wind Dir Waves Ship Positions

Copper Mountain

Owner: Harley Marine Services, Inc, Seattle, WA. More information available from US FCC via Universal Licensing System and Coast Guard Vessel Documentation Center.

Last reported at 2017-Nov-25 07:44 UTC. Time now 2017-Nov-25 09:52 UTC.
Position N 29°57' W 090°01'.

Length 39 m; draft 2 m.

Type: Tug. MMSI: 367740720.

Date/timePositionNaut miles runAvg speedWind from/ knotsBaromVisibWave heightAir tempDewpointWater temp
2017-Nov-25 07:44N 29°57' W 090°01'7 6.4
2017-Nov-25 06:38N 29°57' W 090°09'4 9.9
2017-Nov-25 06:17N 29°55' W 090°12'310.2
2017-Nov-25 06:00N 29°58' W 090°14'5 9.9
2017-Nov-25 05:27N 29°56' W 090°20'  
2017-Nov-20 00:28N 27°55' W 082°27'0 0.0
2017-Nov-19 23:58N 27°55' W 082°27'0 0.0
2017-Nov-19 23:28N 27°55' W 082°27'0 0.0
2017-Nov-19 22:58N 27°55' W 082°27'0 0.0
2017-Nov-19 22:28N 27°55' W 082°27'0 0.0
2017-Nov-19 21:58N 27°55' W 082°27'0 0.0
2017-Nov-19 21:28N 27°55' W 082°27'0 0.0
2017-Nov-19 20:59N 27°55' W 082°27'0 0.4
2017-Nov-19 20:30N 27°55' W 082°27'3 6.4
2017-Nov-19 20:00N 27°52' W 082°27'4 8.0
2017-Nov-19 19:30N 27°48' W 082°28'4 7.6
2017-Nov-19 19:00N 27°46' W 082°31'  
2017-Nov-17 10:02N 29°35' W 089°48'  
Track history (hours):
 
Tides and Currents Weather Stations Pressure Air Temp Water Temp Dewpoint Dewpoint Depression Visibility Wind Speed Wind Dir Waves Ship Positions

Copper Mountain

Owner: Harley Marine Services, Inc, Seattle, WA. More information available from US FCC via Universal Licensing System and Coast Guard Vessel Documentation Center.

Last reported at 2017-Nov-25 07:44 UTC. Time now 2017-Nov-25 09:52 UTC.
Position N 29°57' W 090°01'.

Length 39 m; draft 2 m.

Type: Tug. MMSI: 367740720.

Date/timePositionNaut miles runAvg speedWind from/ knotsBaromVisibWave heightAir tempDewpointWater temp
2017-Nov-25 07:44N 29°57' W 090°01'7 6.4
2017-Nov-25 06:38N 29°57' W 090°09'4 9.9
2017-Nov-25 06:17N 29°55' W 090°12'310.2
2017-Nov-25 06:00N 29°58' W 090°14'5 9.9
2017-Nov-25 05:27N 29°56' W 090°20'  
2017-Nov-20 00:28N 27°55' W 082°27'0 0.0
2017-Nov-19 23:58N 27°55' W 082°27'0 0.0
2017-Nov-19 23:28N 27°55' W 082°27'0 0.0
2017-Nov-19 22:58N 27°55' W 082°27'0 0.0
2017-Nov-19 22:28N 27°55' W 082°27'0 0.0
2017-Nov-19 21:58N 27°55' W 082°27'0 0.0
2017-Nov-19 21:28N 27°55' W 082°27'0 0.0
2017-Nov-19 20:59N 27°55' W 082°27'0 0.4
2017-Nov-19 20:30N 27°55' W 082°27'3 6.4
2017-Nov-19 20:00N 27°52' W 082°27'4 8.0
2017-Nov-19 19:30N 27°48' W 082°28'4 7.6
2017-Nov-19 19:00N 27°46' W 082°31'  
2017-Nov-17 10:02N 29°35' W 089°48'  

Dump ship's entire track history